sensor_id;sensor_type;location;lat;lon;timestamp;temperature;humidity
33269;DHT22;19640;50.944;5.260;2022-12-18T00:01:33;-5.20;99.90
33269;DHT22;19640;50.944;5.260;2022-12-18T00:04:00;-5.30;99.90
33269;DHT22;19640;50.944;5.260;2022-12-18T00:06:28;-5.40;99.90
33269;DHT22;19640;50.944;5.260;2022-12-18T00:08:55;-5.40;99.90
33269;DHT22;19640;50.944;5.260;2022-12-18T00:11:25;-5.60;99.90
33269;DHT22;19640;50.944;5.260;2022-12-18T00:13:51;-5.70;99.90
33269;DHT22;19640;50.944;5.260;2022-12-18T00:16:19;-5.80;99.90
33269;DHT22;19640;50.944;5.260;2022-12-18T00:18:46;-5.70;99.90
33269;DHT22;19640;50.944;5.260;2022-12-18T00:21:13;-5.70;99.90
33269;DHT22;19640;50.944;5.260;2022-12-18T00:23:42;-5.90;99.90
33269;DHT22;19640;50.944;5.260;2022-12-18T00:26:11;-6.20;99.90
33269;DHT22;19640;50.944;5.260;2022-12-18T00:28:37;-6.00;99.90
33269;DHT22;19640;50.944;5.260;2022-12-18T00:31:05;-6.00;99.90
33269;DHT22;19640;50.944;5.260;2022-12-18T00:33:31;-6.00;99.90
33269;DHT22;19640;50.944;5.260;2022-12-18T00:36:05;-6.20;99.90
33269;DHT22;19640;50.944;5.260;2022-12-18T00:38:31;-6.30;99.90
33269;DHT22;19640;50.944;5.260;2022-12-18T00:40:57;-5.90;99.90
33269;DHT22;19640;50.944;5.260;2022-12-18T00:43:23;-6.00;99.90
33269;DHT22;19640;50.944;5.260;2022-12-18T00:45:48;-6.10;99.90
33269;DHT22;19640;50.944;5.260;2022-12-18T00:48:14;-6.50;99.90
33269;DHT22;19640;50.944;5.260;2022-12-18T00:50:40;-6.70;99.90
33269;DHT22;19640;50.944;5.260;2022-12-18T00:53:05;-6.60;99.90
33269;DHT22;19640;50.944;5.260;2022-12-18T00:55:31;-6.40;99.90
33269;DHT22;19640;50.944;5.260;2022-12-18T00:57:57;-6.40;99.90
33269;DHT22;19640;50.944;5.260;2022-12-18T01:00:23;-6.30;99.90
33269;DHT22;19640;50.944;5.260;2022-12-18T01:02:48;-6.40;99.90
33269;DHT22;19640;50.944;5.260;2022-12-18T01:05:15;-6.40;99.90
33269;DHT22;19640;50.944;5.260;2022-12-18T01:07:44;-6.20;99.90
33269;DHT22;19640;50.944;5.260;2022-12-18T01:10:11;-6.30;99.90
33269;DHT22;19640;50.944;5.260;2022-12-18T01:12:38;-6.50;99.90
33269;DHT22;19640;50.944;5.260;2022-12-18T01:15:05;-6.70;99.90
33269;DHT22;19640;50.944;5.260;2022-12-18T01:17:31;-6.80;99.90
33269;DHT22;19640;50.944;5.260;2022-12-18T01:19:57;-6.90;99.90
33269;DHT22;19640;50.944;5.260;2022-12-18T01:22:23;-6.80;99.90
33269;DHT22;19640;50.944;5.260;2022-12-18T01:24:48;-6.70;99.90
33269;DHT22;19640;50.944;5.260;2022-12-18T01:27:14;-6.60;99.90
33269;DHT22;19640;50.944;5.260;2022-12-18T01:29:40;-6.40;99.90
33269;DHT22;19640;50.944;5.260;2022-12-18T01:32:05;-6.00;99.90
33269;DHT22;19640;50.944;5.260;2022-12-18T01:34:31;-5.90;99.90
33269;DHT22;19640;50.944;5.260;2022-12-18T01:36:57;-6.00;99.90
33269;DHT22;19640;50.944;5.260;2022-12-18T01:39:23;-6.00;99.90
33269;DHT22;19640;50.944;5.260;2022-12-18T01:41:49;-6.10;99.90
33269;DHT22;19640;50.944;5.260;2022-12-18T01:49:57;-6.20;99.90
33269;DHT22;19640;50.944;5.260;2022-12-18T01:52:28;-6.10;99.90
33269;DHT22;19640;50.944;5.260;2022-12-18T01:54:54;-6.30;99.90
33269;DHT22;19640;50.944;5.260;2022-12-18T01:57:21;-6.30;99.90
33269;DHT22;19640;50.944;5.260;2022-12-18T01:59:50;-6.30;99.90
33269;DHT22;19640;50.944;5.260;2022-12-18T02:02:18;-6.40;99.90
33269;DHT22;19640;50.944;5.260;2022-12-18T02:04:45;-6.40;99.90
33269;DHT22;19640;50.944;5.260;2022-12-18T02:10:09;-6.30;99.90
33269;DHT22;19640;50.944;5.260;2022-12-18T02:12:54;-6.30;99.90
33269;DHT22;19640;50.944;5.260;2022-12-18T02:18:21;-6.30;99.90
33269;DHT22;19640;50.944;5.260;2022-12-18T02:23:56;-6.10;99.90
33269;DHT22;19640;50.944;5.260;2022-12-18T02:29:03;-6.00;99.90
33269;DHT22;19640;50.944;5.260;2022-12-18T02:31:37;-6.10;99.90
33269;DHT22;19640;50.944;5.260;2022-12-18T02:34:05;-5.90;99.90
33269;DHT22;19640;50.944;5.260;2022-12-18T02:36:33;-6.00;99.90
33269;DHT22;19640;50.944;5.260;2022-12-18T02:39:02;-6.10;99.90
33269;DHT22;19640;50.944;5.260;2022-12-18T02:41:28;-6.10;99.90
33269;DHT22;19640;50.944;5.260;2022-12-18T02:44:00;-5.90;99.90
33269;DHT22;19640;50.944;5.260;2022-12-18T02:46:36;-5.90;99.90
33269;DHT22;19640;50.944;5.260;2022-12-18T02:49:12;-5.80;99.90
33269;DHT22;19640;50.944;5.260;2022-12-18T02:56:51;-6.10;99.90
33269;DHT22;19640;50.944;5.260;2022-12-18T02:59:24;-6.10;99.90
33269;DHT22;19640;50.944;5.260;2022-12-18T03:02:11;-5.90;99.90
33269;DHT22;19640;50.944;5.260;2022-12-18T03:04:47;-5.80;99.90
33269;DHT22;19640;50.944;5.260;2022-12-18T03:07:20;-5.70;99.90
33269;DHT22;19640;50.944;5.260;2022-12-18T03:09:50;-5.70;99.90
33269;DHT22;19640;50.944;5.260;2022-12-18T03:12:32;-5.70;99.90
33269;DHT22;19640;50.944;5.260;2022-12-18T03:15:02;-5.80;99.90
33269;DHT22;19640;50.944;5.260;2022-12-18T03:17:31;-5.90;99.90
33269;DHT22;19640;50.944;5.260;2022-12-18T03:20:08;-5.80;99.90
33269;DHT22;19640;50.944;5.260;2022-12-18T03:22:36;-5.80;99.90
33269;DHT22;19640;50.944;5.260;2022-12-18T03:25:06;-5.80;99.90
33269;DHT22;19640;50.944;5.260;2022-12-18T03:27:36;-5.80;99.90
33269;DHT22;19640;50.944;5.260;2022-12-18T03:30:05;-5.80;99.90
33269;DHT22;19640;50.944;5.260;2022-12-18T03:33:06;-5.90;99.90
33269;DHT22;19640;50.944;5.260;2022-12-18T03:35:37;-5.90;99.90
33269;DHT22;19640;50.944;5.260;2022-12-18T03:38:03;-5.70;99.90
33269;DHT22;19640;50.944;5.260;2022-12-18T03:46:28;-6.10;99.90
33269;DHT22;19640;50.944;5.260;2022-12-18T03:49:08;-6.10;99.90
33269;DHT22;19640;50.944;5.260;2022-12-18T03:51:39;-6.00;99.90
33269;DHT22;19640;50.944;5.260;2022-12-18T03:54:09;-6.10;99.90
33269;DHT22;19640;50.944;5.260;2022-12-18T03:56:47;-6.20;99.90
33269;DHT22;19640;50.944;5.260;2022-12-18T03:59:15;-6.40;99.90
33269;DHT22;19640;50.944;5.260;2022-12-18T04:01:46;-6.40;99.90
33269;DHT22;19640;50.944;5.260;2022-12-18T04:04:12;-6.70;99.90
33269;DHT22;19640;50.944;5.260;2022-12-18T04:06:39;-6.60;99.90
33269;DHT22;19640;50.944;5.260;2022-12-18T04:09:05;-6.40;99.90
33269;DHT22;19640;50.944;5.260;2022-12-18T04:11:31;-6.30;99.90
33269;DHT22;19640;50.944;5.260;2022-12-18T04:13:58;-6.20;99.90
33269;DHT22;19640;50.944;5.260;2022-12-18T04:16:27;-6.20;99.90
33269;DHT22;19640;50.944;5.260;2022-12-18T04:18:53;-6.30;99.90
33269;DHT22;19640;50.944;5.260;2022-12-18T04:21:19;-6.60;99.90
33269;DHT22;19640;50.944;5.260;2022-12-18T04:23:45;-6.70;99.90
33269;DHT22;19640;50.944;5.260;2022-12-18T04:26:11;-6.80;99.90
33269;DHT22;19640;50.944;5.260;2022-12-18T04:28:36;-6.90;99.90
33269;DHT22;19640;50.944;5.260;2022-12-18T04:31:02;-7.10;99.90
33269;DHT22;19640;50.944;5.260;2022-12-18T04:33:28;-6.90;99.90
33269;DHT22;19640;50.944;5.260;2022-12-18T04:35:53;-6.90;99.90
33269;DHT22;19640;50.944;5.260;2022-12-18T04:38:19;-6.70;99.90
33269;DHT22;19640;50.944;5.260;2022-12-18T04:40:45;-6.60;99.90
33269;DHT22;19640;50.944;5.260;2022-12-18T04:43:10;-6.60;99.90
33269;DHT22;19640;50.944;5.260;2022-12-18T04:45:36;-6.50;99.90
33269;DHT22;19640;50.944;5.260;2022-12-18T04:48:02;-6.60;99.90
33269;DHT22;19640;50.944;5.260;2022-12-18T04:50:29;-6.80;99.90
33269;DHT22;19640;50.944;5.260;2022-12-18T04:52:54;-6.70;99.90
33269;DHT22;19640;50.944;5.260;2022-12-18T04:55:20;-6.80;99.90
33269;DHT22;19640;50.944;5.260;2022-12-18T04:57:46;-6.70;99.90
33269;DHT22;19640;50.944;5.260;2022-12-18T05:00:12;-6.60;99.90
33269;DHT22;19640;50.944;5.260;2022-12-18T05:02:38;-6.40;99.90
33269;DHT22;19640;50.944;5.260;2022-12-18T05:05:04;-6.40;99.90
33269;DHT22;19640;50.944;5.260;2022-12-18T05:07:30;-6.40;99.90
33269;DHT22;19640;50.944;5.260;2022-12-18T05:09:56;-6.30;99.90
33269;DHT22;19640;50.944;5.260;2022-12-18T05:12:21;-6.10;99.90
33269;DHT22;19640;50.944;5.260;2022-12-18T05:14:50;-6.10;99.90
33269;DHT22;19640;50.944;5.260;2022-12-18T05:17:16;-6.20;99.90
33269;DHT22;19640;50.944;5.260;2022-12-18T05:19:41;-6.40;99.90
33269;DHT22;19640;50.944;5.260;2022-12-18T05:22:07;-6.40;99.90
33269;DHT22;19640;50.944;5.260;2022-12-18T05:24:33;-6.30;99.90
33269;DHT22;19640;50.944;5.260;2022-12-18T05:26:59;-6.20;99.90
33269;DHT22;19640;50.944;5.260;2022-12-18T05:29:24;-6.20;99.90
33269;DHT22;19640;50.944;5.260;2022-12-18T05:31:50;-6.20;99.90
33269;DHT22;19640;50.944;5.260;2022-12-18T05:34:16;-6.20;99.90
33269;DHT22;19640;50.944;5.260;2022-12-18T05:36:42;-6.20;99.90
33269;DHT22;19640;50.944;5.260;2022-12-18T05:39:08;-6.40;99.90
33269;DHT22;19640;50.944;5.260;2022-12-18T05:41:33;-6.30;99.90
33269;DHT22;19640;50.944;5.260;2022-12-18T05:43:59;-6.30;99.90
33269;DHT22;19640;50.944;5.260;2022-12-18T05:46:25;-6.50;99.90
33269;DHT22;19640;50.944;5.260;2022-12-18T05:48:51;-6.80;99.90
33269;DHT22;19640;50.944;5.260;2022-12-18T05:51:18;-6.80;99.90
33269;DHT22;19640;50.944;5.260;2022-12-18T05:53:44;-6.80;99.90
33269;DHT22;19640;50.944;5.260;2022-12-18T05:56:13;-6.90;99.90
33269;DHT22;19640;50.944;5.260;2022-12-18T05:58:40;-7.20;99.90
33269;DHT22;19640;50.944;5.260;2022-12-18T06:01:11;-7.40;99.90
33269;DHT22;19640;50.944;5.260;2022-12-18T06:03:37;-7.30;99.90
33269;DHT22;19640;50.944;5.260;2022-12-18T06:06:03;-7.10;99.90
33269;DHT22;19640;50.944;5.260;2022-12-18T06:08:29;-7.10;99.90
33269;DHT22;19640;50.944;5.260;2022-12-18T06:10:55;-7.00;99.90
33269;DHT22;19640;50.944;5.260;2022-12-18T06:13:21;-7.00;99.90
33269;DHT22;19640;50.944;5.260;2022-12-18T06:15:47;-7.30;99.90
33269;DHT22;19640;50.944;5.260;2022-12-18T06:18:13;-7.30;99.90
33269;DHT22;19640;50.944;5.260;2022-12-18T06:20:38;-7.20;99.90
33269;DHT22;19640;50.944;5.260;2022-12-18T06:23:06;-7.00;99.90
33269;DHT22;19640;50.944;5.260;2022-12-18T06:25:32;-6.90;99.90
33269;DHT22;19640;50.944;5.260;2022-12-18T06:27:58;-6.50;99.90
33269;DHT22;19640;50.944;5.260;2022-12-18T06:30:24;-6.40;99.90
33269;DHT22;19640;50.944;5.260;2022-12-18T06:32:50;-6.40;99.90
33269;DHT22;19640;50.944;5.260;2022-12-18T06:35:16;-6.60;99.90
33269;DHT22;19640;50.944;5.260;2022-12-18T06:37:41;-6.60;99.90
33269;DHT22;19640;50.944;5.260;2022-12-18T06:40:07;-6.70;99.90
33269;DHT22;19640;50.944;5.260;2022-12-18T06:42:33;-6.80;99.90
33269;DHT22;19640;50.944;5.260;2022-12-18T06:44:59;-6.80;99.90
33269;DHT22;19640;50.944;5.260;2022-12-18T06:47:25;-6.90;99.90
33269;DHT22;19640;50.944;5.260;2022-12-18T06:49:50;-6.90;99.90
33269;DHT22;19640;50.944;5.260;2022-12-18T06:52:16;-6.70;99.90
33269;DHT22;19640;50.944;5.260;2022-12-18T06:54:41;-6.60;99.90
33269;DHT22;19640;50.944;5.260;2022-12-18T06:57:07;-6.70;99.90
33269;DHT22;19640;50.944;5.260;2022-12-18T06:59:33;-6.90;99.90
33269;DHT22;19640;50.944;5.260;2022-12-18T07:01:58;-6.80;99.90
33269;DHT22;19640;50.944;5.260;2022-12-18T07:04:31;-6.80;99.90
33269;DHT22;19640;50.944;5.260;2022-12-18T07:06:57;-7.00;99.90
33269;DHT22;19640;50.944;5.260;2022-12-18T07:09:23;-7.10;99.90
33269;DHT22;19640;50.944;5.260;2022-12-18T07:11:52;-7.30;99.90
33269;DHT22;19640;50.944;5.260;2022-12-18T07:14:17;-7.50;99.90
33269;DHT22;19640;50.944;5.260;2022-12-18T07:16:43;-7.50;99.90
33269;DHT22;19640;50.944;5.260;2022-12-18T07:19:09;-7.60;99.90
33269;DHT22;19640;50.944;5.260;2022-12-18T07:21:34;-7.40;99.90
33269;DHT22;19640;50.944;5.260;2022-12-18T07:24:00;-7.40;99.90
33269;DHT22;19640;50.944;5.260;2022-12-18T07:26:26;-7.40;99.90
33269;DHT22;19640;50.944;5.260;2022-12-18T07:28:55;-7.20;99.90
33269;DHT22;19640;50.944;5.260;2022-12-18T07:31:21;-7.00;99.90
33269;DHT22;19640;50.944;5.260;2022-12-18T07:33:47;-6.80;99.90
33269;DHT22;19640;50.944;5.260;2022-12-18T07:36:14;-6.80;99.90
33269;DHT22;19640;50.944;5.260;2022-12-18T07:38:40;-6.80;99.90
33269;DHT22;19640;50.944;5.260;2022-12-18T07:41:08;-6.70;99.90
33269;DHT22;19640;50.944;5.260;2022-12-18T07:43:34;-6.50;99.90
33269;DHT22;19640;50.944;5.260;2022-12-18T07:46:00;-6.50;99.90
33269;DHT22;19640;50.944;5.260;2022-12-18T07:48:27;-6.40;99.90
33269;DHT22;19640;50.944;5.260;2022-12-18T07:50:53;-6.30;99.90
33269;DHT22;19640;50.944;5.260;2022-12-18T07:53:18;-6.40;99.90
33269;DHT22;19640;50.944;5.260;2022-12-18T07:55:44;-6.40;99.90
33269;DHT22;19640;50.944;5.260;2022-12-18T07:58:10;-6.10;99.90
33269;DHT22;19640;50.944;5.260;2022-12-18T08:00:35;-5.80;99.90
33269;DHT22;19640;50.944;5.260;2022-12-18T08:03:01;-5.60;99.90
33269;DHT22;19640;50.944;5.260;2022-12-18T08:05:27;-5.30;99.90
33269;DHT22;19640;50.944;5.260;2022-12-18T08:07:54;-5.30;99.90
33269;DHT22;19640;50.944;5.260;2022-12-18T08:10:20;-5.50;99.90
33269;DHT22;19640;50.944;5.260;2022-12-18T08:12:50;-5.70;99.90
33269;DHT22;19640;50.944;5.260;2022-12-18T08:15:16;-5.70;99.90
33269;DHT22;19640;50.944;5.260;2022-12-18T08:17:42;-5.70;99.90
33269;DHT22;19640;50.944;5.260;2022-12-18T08:20:08;-6.10;99.90
33269;DHT22;19640;50.944;5.260;2022-12-18T08:22:37;-6.00;99.90
33269;DHT22;19640;50.944;5.260;2022-12-18T08:25:04;-5.90;99.90
33269;DHT22;19640;50.944;5.260;2022-12-18T08:27:30;-5.90;99.90
33269;DHT22;19640;50.944;5.260;2022-12-18T08:29:56;-6.10;99.90
33269;DHT22;19640;50.944;5.260;2022-12-18T08:32:22;-6.30;99.90
33269;DHT22;19640;50.944;5.260;2022-12-18T08:34:48;-6.20;99.90
33269;DHT22;19640;50.944;5.260;2022-12-18T08:37:13;-6.00;99.90
33269;DHT22;19640;50.944;5.260;2022-12-18T08:39:39;-5.90;99.90
33269;DHT22;19640;50.944;5.260;2022-12-18T08:42:04;-5.70;99.90
33269;DHT22;19640;50.944;5.260;2022-12-18T08:44:49;-5.90;99.90
33269;DHT22;19640;50.944;5.260;2022-12-18T08:47:14;-6.00;99.90
33269;DHT22;19640;50.944;5.260;2022-12-18T08:49:40;-5.70;99.90
33269;DHT22;19640;50.944;5.260;2022-12-18T08:52:06;-5.30;99.90
33269;DHT22;19640;50.944;5.260;2022-12-18T08:54:31;-4.90;99.90
33269;DHT22;19640;50.944;5.260;2022-12-18T08:56:57;-4.80;99.90
33269;DHT22;19640;50.944;5.260;2022-12-18T08:59:23;-5.00;99.90
33269;DHT22;19640;50.944;5.260;2022-12-18T09:01:49;-5.10;99.90
33269;DHT22;19640;50.944;5.260;2022-12-18T09:04:14;-4.90;99.90
33269;DHT22;19640;50.944;5.260;2022-12-18T09:06:40;-4.60;99.90
33269;DHT22;19640;50.944;5.260;2022-12-18T09:09:06;-4.40;99.90
33269;DHT22;19640;50.944;5.260;2022-12-18T09:11:32;-4.50;99.90
33269;DHT22;19640;50.944;5.260;2022-12-18T09:14:00;-4.50;99.90
33269;DHT22;19640;50.944;5.260;2022-12-18T09:16:27;-4.60;99.90
33269;DHT22;19640;50.944;5.260;2022-12-18T09:18:54;-4.50;99.90
33269;DHT22;19640;50.944;5.260;2022-12-18T09:21:26;-4.40;99.90
33269;DHT22;19640;50.944;5.260;2022-12-18T09:23:53;-4.30;99.90
33269;DHT22;19640;50.944;5.260;2022-12-18T09:26:21;-4.20;99.90
33269;DHT22;19640;50.944;5.260;2022-12-18T09:28:47;-3.90;99.90
33269;DHT22;19640;50.944;5.260;2022-12-18T09:31:14;-3.90;99.90
33269;DHT22;19640;50.944;5.260;2022-12-18T09:33:40;-3.70;99.90
33269;DHT22;19640;50.944;5.260;2022-12-18T09:36:08;-3.90;99.90
33269;DHT22;19640;50.944;5.260;2022-12-18T09:38:34;-3.90;99.90
33269;DHT22;19640;50.944;5.260;2022-12-18T09:43:58;-3.60;99.90
33269;DHT22;19640;50.944;5.260;2022-12-18T09:46:35;-3.40;99.90
33269;DHT22;19640;50.944;5.260;2022-12-18T09:49:07;-3.20;99.90
33269;DHT22;19640;50.944;5.260;2022-12-18T09:51:50;-3.30;99.90
33269;DHT22;19640;50.944;5.260;2022-12-18T09:54:22;-3.30;99.90
33269;DHT22;19640;50.944;5.260;2022-12-18T09:56:48;-3.00;99.90
33269;DHT22;19640;50.944;5.260;2022-12-18T09:59:34;-2.90;99.90
33269;DHT22;19640;50.944;5.260;2022-12-18T10:04:40;-3.10;99.90
33269;DHT22;19640;50.944;5.260;2022-12-18T10:10:37;-3.20;99.90
33269;DHT22;19640;50.944;5.260;2022-12-18T10:13:31;-3.20;99.90
33269;DHT22;19640;50.944;5.260;2022-12-18T10:16:22;-3.20;99.90
33269;DHT22;19640;50.944;5.260;2022-12-18T10:24:42;-3.20;99.90
33269;DHT22;19640;50.944;5.260;2022-12-18T10:27:14;-3.10;99.90
33269;DHT22;19640;50.944;5.260;2022-12-18T10:29:41;-2.90;99.90
33269;DHT22;19640;50.944;5.260;2022-12-18T10:32:08;-2.90;99.90
33269;DHT22;19640;50.944;5.260;2022-12-18T10:34:35;-2.90;99.90
33269;DHT22;19640;50.944;5.260;2022-12-18T10:37:03;-2.90;99.90
33269;DHT22;19640;50.944;5.260;2022-12-18T10:39:31;-2.90;99.90
33269;DHT22;19640;50.944;5.260;2022-12-18T10:42:14;-2.90;99.90
33269;DHT22;19640;50.944;5.260;2022-12-18T10:44:41;-2.80;99.90
33269;DHT22;19640;50.944;5.260;2022-12-18T10:47:12;-2.80;99.90
33269;DHT22;19640;50.944;5.260;2022-12-18T10:49:49;-2.70;99.90
33269;DHT22;19640;50.944;5.260;2022-12-18T10:52:24;-2.70;99.90
33269;DHT22;19640;50.944;5.260;2022-12-18T10:54:55;-2.60;99.90
33269;DHT22;19640;50.944;5.260;2022-12-18T10:57:36;-2.50;99.90
33269;DHT22;19640;50.944;5.260;2022-12-18T11:00:26;-2.40;99.90
33269;DHT22;19640;50.944;5.260;2022-12-18T11:02:53;-2.30;99.90
33269;DHT22;19640;50.944;5.260;2022-12-18T11:05:33;-2.30;99.90
33269;DHT22;19640;50.944;5.260;2022-12-18T11:08:00;-2.30;99.90
33269;DHT22;19640;50.944;5.260;2022-12-18T11:10:33;-2.30;99.90
33269;DHT22;19640;50.944;5.260;2022-12-18T11:13:16;-2.20;99.90
33269;DHT22;19640;50.944;5.260;2022-12-18T11:15:42;-2.20;99.90
33269;DHT22;19640;50.944;5.260;2022-12-18T11:18:25;-2.10;99.90
33269;DHT22;19640;50.944;5.260;2022-12-18T11:20:57;-2.00;99.90
33269;DHT22;19640;50.944;5.260;2022-12-18T11:23:24;-2.00;99.90
33269;DHT22;19640;50.944;5.260;2022-12-18T11:25:56;-1.90;99.90
33269;DHT22;19640;50.944;5.260;2022-12-18T11:28:34;-1.80;99.90
33269;DHT22;19640;50.944;5.260;2022-12-18T11:33:40;-1.50;99.90
33269;DHT22;19640;50.944;5.260;2022-12-18T11:36:09;-1.40;99.90
33269;DHT22;19640;50.944;5.260;2022-12-18T11:38:39;-1.50;99.90
33269;DHT22;19640;50.944;5.260;2022-12-18T11:44:11;-1.40;99.90
33269;DHT22;19640;50.944;5.260;2022-12-18T11:47:25;-1.30;99.90
33269;DHT22;19640;50.944;5.260;2022-12-18T11:49:56;-1.30;99.90
33269;DHT22;19640;50.944;5.260;2022-12-18T11:52:30;-1.20;99.90
33269;DHT22;19640;50.944;5.260;2022-12-18T11:55:00;-1.20;99.90
33269;DHT22;19640;50.944;5.260;2022-12-18T12:05:28;-1.10;99.90
33269;DHT22;19640;50.944;5.260;2022-12-18T12:16:09;-0.70;99.90
33269;DHT22;19640;50.944;5.260;2022-12-18T12:18:55;-0.50;99.90
33269;DHT22;19640;50.944;5.260;2022-12-18T12:21:43;-0.60;99.90
33269;DHT22;19640;50.944;5.260;2022-12-18T12:24:37;-0.60;99.90
33269;DHT22;19640;50.944;5.260;2022-12-18T12:30:04;-0.60;99.90
33269;DHT22;19640;50.944;5.260;2022-12-18T12:38:06;-0.50;99.90
33269;DHT22;19640;50.944;5.260;2022-12-18T12:40:37;-0.50;99.90
33269;DHT22;19640;50.944;5.260;2022-12-18T12:45:55;-0.50;99.90
33269;DHT22;19640;50.944;5.260;2022-12-18T12:51:18;-0.50;99.90
33269;DHT22;19640;50.944;5.260;2022-12-18T12:53:45;-0.50;99.90
33269;DHT22;19640;50.944;5.260;2022-12-18T12:56:13;-0.50;99.90
33269;DHT22;19640;50.944;5.260;2022-12-18T12:58:58;-0.40;99.90
33269;DHT22;19640;50.944;5.260;2022-12-18T13:01:41;-0.30;99.90
33269;DHT22;19640;50.944;5.260;2022-12-18T13:04:39;-0.20;99.90
33269;DHT22;19640;50.944;5.260;2022-12-18T13:13:12;-0.30;99.90
33269;DHT22;19640;50.944;5.260;2022-12-18T13:15:46;-0.30;99.90
33269;DHT22;19640;50.944;5.260;2022-12-18T13:18:23;-0.20;99.90
33269;DHT22;19640;50.944;5.260;2022-12-18T13:21:01;-0.20;99.90
33269;DHT22;19640;50.944;5.260;2022-12-18T13:23:34;0.10;99.90
33269;DHT22;19640;50.944;5.260;2022-12-18T13:31:13;0.20;99.90
33269;DHT22;19640;50.944;5.260;2022-12-18T13:33:44;0.20;99.90
33269;DHT22;19640;50.944;5.260;2022-12-18T13:41:40;0.60;99.90
33269;DHT22;19640;50.944;5.260;2022-12-18T13:44:27;0.70;99.90
33269;DHT22;19640;50.944;5.260;2022-12-18T13:46:54;0.70;99.90
33269;DHT22;19640;50.944;5.260;2022-12-18T13:51:54;0.30;99.90
33269;DHT22;19640;50.944;5.260;2022-12-18T13:54:36;0.30;99.90
33269;DHT22;19640;50.944;5.260;2022-12-18T13:57:04;0.20;99.90
33269;DHT22;19640;50.944;5.260;2022-12-18T13:59:39;0.60;99.90
33269;DHT22;19640;50.944;5.260;2022-12-18T14:02:16;0.30;99.90
33269;DHT22;19640;50.944;5.260;2022-12-18T14:04:45;0.30;99.90
33269;DHT22;19640;50.944;5.260;2022-12-18T14:07:18;0.10;99.90
33269;DHT22;19640;50.944;5.260;2022-12-18T14:09:47;0.20;99.90
33269;DHT22;19640;50.944;5.260;2022-12-18T14:12:33;0.30;99.90
33269;DHT22;19640;50.944;5.260;2022-12-18T14:15:32;0.10;99.90
33269;DHT22;19640;50.944;5.260;2022-12-18T14:20:50;-0.10;99.90
33269;DHT22;19640;50.944;5.260;2022-12-18T14:23:39;-0.10;99.90
33269;DHT22;19640;50.944;5.260;2022-12-18T14:26:26;0.00;99.90
33269;DHT22;19640;50.944;5.260;2022-12-18T14:28:55;0.10;99.90
33269;DHT22;19640;50.944;5.260;2022-12-18T14:31:25;0.10;99.90
33269;DHT22;19640;50.944;5.260;2022-12-18T14:33:52;0.10;99.90
33269;DHT22;19640;50.944;5.260;2022-12-18T14:36:21;0.40;99.90
33269;DHT22;19640;50.944;5.260;2022-12-18T14:38:56;0.20;99.90
33269;DHT22;19640;50.944;5.260;2022-12-18T14:41:22;0.10;99.90
33269;DHT22;19640;50.944;5.260;2022-12-18T14:43:50;0.10;99.90
33269;DHT22;19640;50.944;5.260;2022-12-18T14:46:36;0.00;99.90
33269;DHT22;19640;50.944;5.260;2022-12-18T14:49:32;0.00;99.90
33269;DHT22;19640;50.944;5.260;2022-12-18T14:52:03;0.00;99.90
33269;DHT22;19640;50.944;5.260;2022-12-18T14:54:30;0.00;99.90
33269;DHT22;19640;50.944;5.260;2022-12-18T14:56:59;-0.10;99.90
33269;DHT22;19640;50.944;5.260;2022-12-18T14:59:26;0.00;99.90
33269;DHT22;19640;50.944;5.260;2022-12-18T15:04:40;0.20;99.90
33269;DHT22;19640;50.944;5.260;2022-12-18T15:09:44;0.00;99.90
33269;DHT22;19640;50.944;5.260;2022-12-18T15:12:49;0.00;99.90
33269;DHT22;19640;50.944;5.260;2022-12-18T15:18:00;0.40;99.90
33269;DHT22;19640;50.944;5.260;2022-12-18T15:20:26;0.40;99.90
33269;DHT22;19640;50.944;5.260;2022-12-18T15:22:52;0.50;99.90
33269;DHT22;19640;50.944;5.260;2022-12-18T15:25:36;0.50;99.90
33269;DHT22;19640;50.944;5.260;2022-12-18T15:28:04;0.60;99.90
33269;DHT22;19640;50.944;5.260;2022-12-18T15:30:38;0.60;99.90
33269;DHT22;19640;50.944;5.260;2022-12-18T15:33:23;0.60;99.90
33269;DHT22;19640;50.944;5.260;2022-12-18T15:36:00;0.80;99.90
33269;DHT22;19640;50.944;5.260;2022-12-18T15:38:26;0.90;99.90
33269;DHT22;19640;50.944;5.260;2022-12-18T15:40:53;1.10;99.90
33269;DHT22;19640;50.944;5.260;2022-12-18T15:43:21;1.30;99.90
33269;DHT22;19640;50.944;5.260;2022-12-18T15:46:10;1.30;99.90
33269;DHT22;19640;50.944;5.260;2022-12-18T15:48:41;1.10;99.90
33269;DHT22;19640;50.944;5.260;2022-12-18T15:51:16;1.30;99.90
33269;DHT22;19640;50.944;5.260;2022-12-18T15:53:42;1.20;99.90
33269;DHT22;19640;50.944;5.260;2022-12-18T15:56:13;1.10;99.90
33269;DHT22;19640;50.944;5.260;2022-12-18T15:58:57;1.20;99.90
33269;DHT22;19640;50.944;5.260;2022-12-18T16:01:25;1.20;99.90
33269;DHT22;19640;50.944;5.260;2022-12-18T16:03:51;1.20;99.90
33269;DHT22;19640;50.944;5.260;2022-12-18T16:06:16;1.30;99.90
33269;DHT22;19640;50.944;5.260;2022-12-18T16:08:42;1.40;99.90
33269;DHT22;19640;50.944;5.260;2022-12-18T16:11:25;1.40;99.90
33269;DHT22;19640;50.944;5.260;2022-12-18T16:14:19;1.40;99.90
33269;DHT22;19640;50.944;5.260;2022-12-18T16:16:50;1.20;99.90
33269;DHT22;19640;50.944;5.260;2022-12-18T16:19:16;1.20;99.90
33269;DHT22;19640;50.944;5.260;2022-12-18T16:21:43;1.40;99.90
33269;DHT22;19640;50.944;5.260;2022-12-18T16:24:16;1.30;99.90
33269;DHT22;19640;50.944;5.260;2022-12-18T16:26:42;1.50;99.90
33269;DHT22;19640;50.944;5.260;2022-12-18T16:29:09;1.50;99.90
33269;DHT22;19640;50.944;5.260;2022-12-18T16:31:35;1.50;99.90
33269;DHT22;19640;50.944;5.260;2022-12-18T16:34:31;1.60;99.90
33269;DHT22;19640;50.944;5.260;2022-12-18T16:36:59;1.40;99.90
33269;DHT22;19640;50.944;5.260;2022-12-18T16:39:25;1.40;99.90
33269;DHT22;19640;50.944;5.260;2022-12-18T16:41:51;1.50;99.90
33269;DHT22;19640;50.944;5.260;2022-12-18T16:44:19;1.40;99.90
33269;DHT22;19640;50.944;5.260;2022-12-18T16:46:45;1.50;99.90
33269;DHT22;19640;50.944;5.260;2022-12-18T16:49:12;1.60;99.90
33269;DHT22;19640;50.944;5.260;2022-12-18T16:51:38;1.60;99.90
33269;DHT22;19640;50.944;5.260;2022-12-18T16:54:04;1.60;99.90
33269;DHT22;19640;50.944;5.260;2022-12-18T16:56:30;1.60;99.90
33269;DHT22;19640;50.944;5.260;2022-12-18T16:58:58;1.40;99.90
33269;DHT22;19640;50.944;5.260;2022-12-18T17:01:24;1.60;99.90
33269;DHT22;19640;50.944;5.260;2022-12-18T17:03:54;1.50;99.90
33269;DHT22;19640;50.944;5.260;2022-12-18T17:06:21;1.50;99.90
33269;DHT22;19640;50.944;5.260;2022-12-18T17:08:47;1.60;99.90
33269;DHT22;19640;50.944;5.260;2022-12-18T17:11:13;1.70;99.90
33269;DHT22;19640;50.944;5.260;2022-12-18T17:13:39;1.60;99.90
33269;DHT22;19640;50.944;5.260;2022-12-18T17:16:05;1.70;99.90
33269;DHT22;19640;50.944;5.260;2022-12-18T17:18:32;1.60;99.90
33269;DHT22;19640;50.944;5.260;2022-12-18T17:21:02;1.80;99.90
33269;DHT22;19640;50.944;5.260;2022-12-18T17:23:28;1.70;99.90
33269;DHT22;19640;50.944;5.260;2022-12-18T17:25:58;1.80;99.90
33269;DHT22;19640;50.944;5.260;2022-12-18T17:28:25;1.80;99.90
33269;DHT22;19640;50.944;5.260;2022-12-18T17:30:55;2.00;99.90
33269;DHT22;19640;50.944;5.260;2022-12-18T17:33:22;1.70;99.90
33269;DHT22;19640;50.944;5.260;2022-12-18T17:35:48;1.70;99.90
33269;DHT22;19640;50.944;5.260;2022-12-18T17:38:14;1.70;99.90
33269;DHT22;19640;50.944;5.260;2022-12-18T17:40:39;2.00;99.90